createdAt,value
2017-12-17T00:02:21.516Z,5.07
2017-12-17T00:04:49.799Z,5.17
2017-12-17T00:07:18.051Z,4.83
2017-12-17T00:09:46.340Z,4.63
2017-12-17T00:12:14.588Z,3.07
2017-12-17T00:14:42.852Z,5.00
2017-12-17T00:17:11.888Z,4.53
2017-12-17T00:19:40.148Z,4.27
2017-12-17T00:22:08.421Z,4.20
2017-12-17T00:24:36.690Z,3.83
2017-12-17T00:27:05.741Z,3.50
2017-12-17T00:29:33.999Z,4.33
2017-12-17T00:32:02.249Z,4.43
2017-12-17T00:34:30.516Z,3.00
2017-12-17T00:36:58.776Z,4.53
2017-12-17T00:39:27.811Z,3.37
2017-12-17T00:41:56.059Z,3.87
2017-12-17T00:44:24.344Z,3.17
2017-12-17T00:46:52.596Z,3.27
2017-12-17T00:49:21.607Z,3.73
2017-12-17T00:51:49.891Z,3.47
2017-12-17T00:54:18.135Z,4.30
2017-12-17T00:56:46.398Z,3.80
2017-12-17T00:59:14.663Z,3.97
2017-12-17T01:01:42.944Z,4.67
2017-12-17T01:04:11.196Z,3.77
2017-12-17T01:06:39.497Z,3.20
2017-12-17T01:09:07.809Z,3.50
2017-12-17T01:11:36.857Z,3.93
2017-12-17T01:14:05.236Z,3.77
2017-12-17T01:16:33.499Z,2.93
2017-12-17T01:19:01.783Z,4.77
2017-12-17T01:21:30.082Z,3.67
2017-12-17T01:23:58.350Z,3.20
2017-12-17T01:26:26.740Z,3.73
2017-12-17T01:28:54.980Z,4.10
2017-12-17T01:31:23.397Z,3.17
2017-12-17T01:33:51.644Z,3.90
2017-12-17T01:36:19.921Z,3.60
2017-12-17T01:38:48.180Z,3.40
2017-12-17T01:41:16.445Z,3.73
2017-12-17T01:43:45.499Z,3.57
2017-12-17T01:46:13.747Z,3.23
2017-12-17T01:48:42.020Z,3.30
2017-12-17T01:51:10.293Z,3.23
2017-12-17T01:53:38.561Z,3.97
2017-12-17T01:56:06.883Z,3.57
2017-12-17T01:58:35.125Z,3.10
2017-12-17T02:01:03.408Z,2.63
2017-12-17T02:03:31.663Z,3.40
2017-12-17T02:05:59.991Z,3.60
2017-12-17T02:08:28.241Z,3.03
2017-12-17T02:10:56.524Z,3.30
2017-12-17T02:13:24.791Z,3.70
2017-12-17T02:15:53.108Z,3.30
2017-12-17T02:18:21.366Z,3.43
2017-12-17T02:20:49.653Z,3.17
2017-12-17T02:23:17.933Z,3.80
2017-12-17T02:25:46.197Z,3.30
2017-12-17T02:28:14.608Z,3.20
2017-12-17T02:30:42.866Z,3.10
2017-12-17T02:33:11.244Z,2.63
2017-12-17T02:35:39.516Z,2.77
2017-12-17T02:38:07.773Z,3.40
2017-12-17T02:40:36.036Z,3.10
2017-12-17T02:43:04.436Z,3.90
2017-12-17T02:45:32.726Z,2.23
2017-12-17T02:48:00.992Z,4.33
2017-12-17T02:50:29.302Z,3.90
2017-12-17T02:52:57.557Z,3.30
2017-12-17T02:55:25.819Z,4.13
2017-12-17T02:57:54.084Z,4.63
2017-12-17T03:00:26.253Z,4.13
2017-12-17T03:02:54.523Z,4.33
2017-12-17T03:05:22.786Z,3.90
2017-12-17T03:07:51.068Z,3.50
2017-12-17T03:10:19.329Z,3.17
2017-12-17T03:12:48.353Z,3.83
2017-12-17T03:15:16.761Z,3.37
2017-12-17T03:17:45.008Z,2.33
2017-12-17T03:20:13.280Z,2.93
2017-12-17T03:22:41.596Z,2.70
2017-12-17T03:25:09.856Z,2.67
2017-12-17T03:27:38.117Z,2.03
2017-12-17T03:30:06.400Z,2.90
2017-12-17T03:32:35.451Z,2.17
2017-12-17T03:35:03.724Z,2.50
2017-12-17T03:37:32.000Z,2.70
2017-12-17T03:40:00.257Z,2.20
2017-12-17T03:42:28.558Z,2.67
2017-12-17T03:44:56.808Z,3.10
2017-12-17T03:47:25.083Z,2.70
2017-12-17T03:49:53.369Z,3.30
2017-12-17T03:52:21.625Z,3.77
2017-12-17T03:54:49.929Z,5.20
2017-12-17T03:57:18.226Z,4.70
2017-12-17T03:59:46.478Z,3.73
2017-12-17T04:02:14.736Z,4.33
2017-12-17T04:04:43.007Z,4.93
2017-12-17T04:07:11.267Z,4.23
2017-12-17T04:09:40.342Z,4.17
2017-12-17T04:12:08.604Z,3.70
2017-12-17T04:14:36.880Z,4.00
2017-12-17T04:17:05.274Z,4.50
2017-12-17T04:19:33.511Z,4.40
2017-12-17T04:22:01.814Z,3.43
2017-12-17T04:24:30.068Z,3.80
2017-12-17T04:26:58.340Z,2.90
2017-12-17T04:29:26.593Z,3.70
2017-12-17T04:31:55.646Z,4.83
2017-12-17T04:34:23.894Z,3.50
2017-12-17T04:36:52.140Z,5.87
2017-12-17T04:39:20.424Z,4.23
2017-12-17T04:41:49.432Z,6.40
2017-12-17T04:44:17.709Z,5.17
2017-12-17T04:46:46.014Z,5.73
2017-12-17T04:49:14.399Z,4.20
2017-12-17T04:51:42.639Z,4.10
2017-12-17T04:54:10.888Z,5.13
2017-12-17T04:56:39.929Z,3.40
2017-12-17T04:59:08.188Z,4.10
2017-12-17T05:01:36.464Z,3.80
2017-12-17T05:04:04.712Z,4.23
2017-12-17T05:06:33.760Z,4.30
2017-12-17T05:09:02.019Z,4.30
2017-12-17T05:11:30.429Z,2.53
2017-12-17T05:13:58.683Z,3.57
2017-12-17T05:16:26.960Z,2.67
2017-12-17T05:18:55.232Z,2.40
2017-12-17T05:21:23.480Z,2.43
2017-12-17T05:23:51.753Z,3.07
2017-12-17T05:26:20.784Z,2.40
2017-12-17T05:28:49.037Z,2.63
2017-12-17T05:31:17.304Z,2.43
2017-12-17T05:33:46.328Z,2.43
2017-12-17T05:36:14.625Z,3.00
2017-12-17T05:38:42.888Z,2.30
2017-12-17T05:41:11.164Z,2.07
2017-12-17T05:43:39.426Z,4.10
2017-12-17T05:46:07.680Z,2.40
2017-12-17T05:48:36.716Z,2.50
2017-12-17T05:51:04.971Z,3.30
2017-12-17T05:53:33.248Z,1.97
2017-12-17T05:56:01.609Z,2.40
2017-12-17T05:58:29.884Z,2.40
2017-12-17T06:00:58.129Z,3.60
2017-12-17T06:03:26.380Z,2.43
2017-12-17T06:05:55.424Z,2.10
2017-12-17T06:08:23.683Z,2.73
2017-12-17T06:10:51.964Z,2.30
2017-12-17T06:13:20.208Z,2.27
2017-12-17T06:15:49.271Z,2.90
2017-12-17T06:18:17.639Z,2.60
2017-12-17T06:20:45.890Z,2.47
2017-12-17T06:23:14.162Z,2.40
2017-12-17T06:25:42.424Z,2.40
2017-12-17T06:28:10.754Z,3.10
2017-12-17T06:30:39.011Z,2.53
2017-12-17T06:33:07.285Z,3.00
2017-12-17T06:35:35.541Z,2.83
2017-12-17T06:38:03.836Z,2.20
2017-12-17T06:40:32.099Z,2.10
2017-12-17T06:43:00.409Z,1.97
2017-12-17T06:45:28.676Z,2.80
2017-12-17T06:47:56.932Z,4.37
2017-12-17T06:50:25.208Z,3.00
2017-12-17T06:52:53.459Z,2.90
2017-12-17T06:55:22.542Z,2.60
2017-12-17T06:57:50.765Z,3.70
2017-12-17T07:00:19.016Z,3.20
2017-12-17T07:02:47.283Z,4.40
2017-12-17T07:05:16.310Z,3.50
2017-12-17T07:07:44.577Z,3.20
2017-12-17T07:10:12.832Z,3.33
2017-12-17T07:12:41.883Z,3.20
2017-12-17T07:15:10.124Z,2.87
2017-12-17T07:17:38.388Z,3.27
2017-12-17T07:20:06.715Z,2.93
2017-12-17T07:22:34.956Z,2.90
2017-12-17T07:25:03.242Z,2.20
2017-12-17T07:27:31.489Z,2.83
2017-12-17T07:30:00.529Z,3.03
2017-12-17T07:32:28.789Z,3.23
2017-12-17T07:34:57.049Z,3.43
2017-12-17T07:37:25.355Z,3.13
2017-12-17T07:39:53.601Z,3.40
2017-12-17T07:42:21.875Z,3.67
2017-12-17T07:44:50.133Z,2.90
2017-12-17T07:47:19.173Z,2.77
2017-12-17T07:49:47.432Z,3.03
2017-12-17T07:52:15.688Z,2.20
2017-12-17T07:54:44.730Z,3.53
2017-12-17T07:57:13.004Z,2.77
2017-12-17T07:59:41.298Z,2.53
2017-12-17T08:02:09.569Z,3.57
2017-12-17T08:04:37.954Z,3.87
2017-12-17T08:07:06.192Z,2.70
2017-12-17T08:09:34.452Z,2.33
2017-12-17T08:12:03.475Z,3.03
2017-12-17T08:14:31.736Z,2.77
2017-12-17T08:17:00.012Z,1.93
2017-12-17T08:19:28.304Z,2.80
2017-12-17T08:21:56.575Z,2.83
2017-12-17T08:24:24.923Z,3.00
2017-12-17T08:26:53.268Z,4.73
2017-12-17T08:29:21.537Z,3.53
2017-12-17T08:31:49.788Z,3.70
2017-12-17T08:34:18.188Z,3.20
2017-12-17T08:36:46.444Z,4.00
2017-12-17T08:39:14.854Z,4.70
2017-12-17T08:41:43.235Z,3.00
2017-12-17T08:44:11.480Z,3.87
2017-12-17T08:46:39.756Z,4.57
2017-12-17T08:49:08.012Z,3.63
2017-12-17T08:51:37.044Z,3.87
2017-12-17T08:54:05.294Z,4.13
2017-12-17T08:56:33.572Z,4.60
2017-12-17T08:59:01.836Z,3.87
2017-12-17T09:01:30.853Z,4.53
2017-12-17T09:03:59.127Z,3.57
2017-12-17T09:06:27.388Z,4.10
2017-12-17T09:08:55.669Z,4.80
2017-12-17T09:11:23.933Z,3.60
2017-12-17T09:13:52.987Z,4.23
2017-12-17T09:16:21.239Z,4.93
2017-12-17T09:18:49.487Z,3.80
2017-12-17T09:21:17.759Z,5.80
2017-12-17T09:23:46.032Z,6.23
2017-12-17T09:26:15.076Z,4.17
2017-12-17T09:28:43.339Z,3.57
2017-12-17T09:31:11.611Z,4.37
2017-12-17T09:33:39.868Z,4.83
2017-12-17T09:36:08.164Z,4.70
2017-12-17T09:38:36.420Z,4.60
2017-12-17T09:41:04.671Z,4.50
2017-12-17T09:43:32.968Z,4.50
2017-12-17T09:46:01.234Z,3.40
2017-12-17T09:48:30.412Z,4.17
2017-12-17T09:50:58.660Z,4.23
2017-12-17T09:53:26.940Z,4.07
2017-12-17T09:55:55.201Z,4.00
2017-12-17T09:58:23.447Z,5.20
2017-12-17T10:00:52.508Z,4.20
2017-12-17T10:03:20.786Z,4.73
2017-12-17T10:05:49.298Z,5.20
2017-12-17T10:08:17.567Z,4.60
2017-12-17T10:10:45.827Z,4.73
2017-12-17T10:13:14.088Z,4.03
2017-12-17T10:15:42.348Z,5.00
2017-12-17T10:18:10.618Z,3.27
2017-12-17T10:20:38.868Z,3.97
2017-12-17T10:23:07.916Z,3.67
2017-12-17T10:25:36.159Z,3.80
2017-12-17T10:28:04.515Z,4.20
2017-12-17T10:30:32.779Z,4.23
2017-12-17T10:33:01.063Z,4.33
2017-12-17T10:35:30.085Z,4.17
2017-12-17T10:37:58.344Z,4.57
2017-12-17T10:40:26.677Z,3.60
2017-12-17T10:42:54.928Z,3.80
2017-12-17T10:45:23.228Z,4.47
2017-12-17T10:47:51.485Z,4.13
2017-12-17T10:50:19.768Z,4.63
2017-12-17T10:52:48.027Z,3.70
2017-12-17T10:55:16.288Z,4.00
2017-12-17T10:57:45.364Z,3.90
2017-12-17T11:00:14.387Z,4.33
2017-12-17T11:02:42.689Z,3.83
2017-12-17T11:05:11.704Z,3.60
2017-12-17T11:07:39.991Z,4.50
2017-12-17T11:10:08.244Z,3.10
2017-12-17T11:12:36.519Z,4.00
2017-12-17T11:15:04.800Z,4.67
2017-12-17T11:17:33.085Z,3.80
2017-12-17T11:20:01.361Z,3.43
2017-12-17T11:22:29.610Z,3.60
2017-12-17T11:24:57.895Z,3.93
2017-12-17T11:27:26.147Z,3.83
2017-12-17T11:29:54.423Z,2.90
2017-12-17T11:32:23.448Z,2.97
2017-12-17T11:34:51.716Z,3.27
2017-12-17T11:37:19.994Z,3.63
2017-12-17T11:39:48.249Z,2.70
2017-12-17T11:42:16.545Z,4.37
2017-12-17T11:44:44.797Z,4.30
2017-12-17T11:47:13.061Z,3.20
2017-12-17T11:49:42.101Z,3.27
2017-12-17T11:52:10.354Z,2.50
2017-12-17T11:54:38.620Z,3.90
2017-12-17T11:57:07.648Z,3.50
2017-12-17T11:59:35.920Z,2.60
2017-12-17T12:02:04.258Z,3.87
2017-12-17T12:04:32.508Z,3.47
2017-12-17T12:07:00.778Z,2.80
2017-12-17T12:09:29.033Z,3.50
2017-12-17T12:11:57.307Z,2.40
2017-12-17T12:14:25.555Z,2.90
2017-12-17T12:16:53.882Z,2.70
2017-12-17T12:19:22.119Z,3.20
2017-12-17T12:21:50.404Z,2.57
2017-12-17T12:24:18.665Z,3.40
2017-12-17T12:26:46.924Z,2.00
2017-12-17T12:29:16.060Z,2.90
2017-12-17T12:31:44.344Z,2.80
2017-12-17T12:34:12.623Z,3.30
2017-12-17T12:36:40.882Z,3.00
2017-12-17T12:39:09.168Z,2.77
2017-12-17T12:41:37.470Z,2.57
2017-12-17T12:44:05.958Z,3.50
2017-12-17T12:46:34.220Z,3.37
2017-12-17T12:49:02.474Z,3.17
2017-12-17T12:51:30.740Z,2.67
2017-12-17T12:53:58.999Z,3.03
2017-12-17T12:56:28.058Z,2.30
2017-12-17T12:58:56.294Z,2.90
2017-12-17T13:01:24.544Z,3.07
2017-12-17T13:03:53.589Z,2.40
2017-12-17T13:06:21.851Z,2.97
2017-12-17T13:08:50.127Z,3.30
2017-12-17T13:11:18.377Z,2.70
2017-12-17T13:13:47.531Z,2.30
2017-12-17T13:16:15.776Z,3.23
2017-12-17T13:18:44.032Z,2.30
2017-12-17T13:21:12.312Z,2.87
2017-12-17T13:23:41.323Z,3.37
2017-12-17T13:26:09.608Z,2.20
2017-12-17T13:28:37.868Z,2.33
2017-12-17T13:31:06.148Z,1.90
2017-12-17T13:33:34.408Z,2.10
2017-12-17T13:36:03.423Z,2.00
2017-12-17T13:38:31.694Z,2.10
2017-12-17T13:40:59.954Z,2.10
2017-12-17T13:43:28.996Z,2.80
2017-12-17T13:45:57.251Z,2.13
2017-12-17T13:48:25.657Z,2.07
2017-12-17T13:50:53.924Z,2.17
2017-12-17T13:53:22.184Z,2.40
2017-12-17T13:55:50.454Z,1.93
2017-12-17T13:58:18.745Z,2.07
2017-12-17T14:00:47.013Z,1.70
2017-12-17T14:03:15.285Z,1.20
2017-12-17T14:05:43.601Z,1.87
2017-12-17T14:08:11.848Z,2.10
2017-12-17T14:10:40.105Z,1.70
2017-12-17T14:13:08.379Z,1.60
2017-12-17T14:15:37.411Z,1.80
2017-12-17T14:18:05.711Z,2.20
2017-12-17T14:20:33.968Z,2.20
2017-12-17T14:23:02.218Z,1.93
2017-12-17T14:25:30.487Z,1.83
2017-12-17T14:27:58.805Z,1.53
2017-12-17T14:30:27.075Z,2.73
2017-12-17T14:32:55.344Z,2.23
2017-12-17T14:35:23.630Z,2.07
2017-12-17T14:37:51.888Z,1.90
2017-12-17T14:40:20.145Z,2.40
2017-12-17T14:42:48.415Z,1.60
2017-12-17T14:45:17.433Z,1.97
2017-12-17T14:47:45.846Z,1.90
2017-12-17T14:50:14.129Z,2.80
2017-12-17T14:52:43.331Z,1.90
2017-12-17T14:55:11.587Z,2.00
2017-12-17T14:57:39.850Z,2.47
2017-12-17T15:00:09.240Z,1.80
2017-12-17T15:02:37.481Z,3.40
2017-12-17T15:05:06.532Z,1.83
2017-12-17T15:07:34.795Z,2.30
2017-12-17T15:10:03.084Z,1.97
2017-12-17T15:12:31.340Z,2.47
2017-12-17T15:14:59.666Z,2.63
2017-12-17T15:17:28.037Z,2.07
2017-12-17T15:19:56.284Z,2.00
2017-12-17T15:22:24.561Z,2.30
2017-12-17T15:24:52.826Z,2.10
2017-12-17T15:27:21.124Z,2.30
2017-12-17T15:29:49.369Z,2.60
2017-12-17T15:32:18.411Z,1.63
2017-12-17T15:34:46.664Z,2.17
2017-12-17T15:37:14.924Z,2.30
2017-12-17T15:39:44.070Z,2.27
2017-12-17T15:42:12.307Z,2.13
2017-12-17T15:44:40.721Z,3.57
2017-12-17T15:47:09.004Z,2.80
2017-12-17T15:49:37.504Z,2.00
2017-12-17T15:52:06.516Z,2.23
2017-12-17T15:54:35.540Z,1.97
2017-12-17T15:57:03.875Z,2.30
2017-12-17T15:59:32.160Z,1.87
2017-12-17T16:02:01.217Z,2.30
2017-12-17T16:04:29.519Z,2.23
2017-12-17T16:06:57.794Z,2.30
2017-12-17T16:09:26.159Z,3.00
2017-12-17T16:11:54.452Z,2.10
2017-12-17T16:14:22.745Z,2.10
2017-12-17T16:16:51.795Z,2.67
2017-12-17T16:19:20.098Z,2.07
2017-12-17T16:21:48.370Z,2.60
2017-12-17T16:24:16.718Z,3.07
2017-12-17T16:26:44.991Z,2.20
2017-12-17T16:29:13.231Z,2.60
2017-12-17T16:31:42.281Z,3.20
2017-12-17T16:34:10.530Z,2.37
2017-12-17T16:36:38.860Z,2.47
2017-12-17T16:39:07.101Z,2.77
2017-12-17T16:41:35.470Z,2.37
2017-12-17T16:44:03.715Z,1.80
2017-12-17T16:46:32.792Z,2.60
2017-12-17T16:49:01.830Z,2.50
2017-12-17T16:51:30.084Z,1.80
2017-12-17T16:53:59.124Z,2.97
2017-12-17T16:56:27.386Z,3.00
2017-12-17T16:58:55.693Z,2.93
2017-12-17T17:01:23.996Z,2.57
2017-12-17T17:03:52.234Z,2.50
2017-12-17T17:06:20.625Z,2.23
2017-12-17T17:08:48.878Z,2.80
2017-12-17T17:11:17.157Z,2.67
2017-12-17T17:13:45.391Z,2.13
2017-12-17T17:16:14.475Z,1.57
2017-12-17T17:18:42.712Z,3.00
2017-12-17T17:21:10.968Z,1.77
2017-12-17T17:23:39.254Z,1.73
2017-12-17T17:26:07.500Z,2.00
2017-12-17T17:28:36.662Z,2.13
2017-12-17T17:31:04.907Z,2.13
2017-12-17T17:33:33.196Z,1.90
2017-12-17T17:36:01.464Z,2.10
2017-12-17T17:38:29.770Z,2.80
2017-12-17T17:40:58.138Z,2.90
2017-12-17T17:43:26.408Z,2.43
2017-12-17T17:45:54.677Z,2.00
2017-12-17T17:48:22.965Z,2.20
2017-12-17T17:50:51.359Z,2.17
2017-12-17T17:53:19.628Z,2.93
2017-12-17T17:55:47.881Z,3.00
2017-12-17T17:58:16.315Z,2.40
2017-12-17T18:00:44.668Z,2.07
2017-12-17T18:03:12.950Z,1.90
2017-12-17T18:05:41.311Z,2.47
2017-12-17T18:08:09.617Z,1.97
2017-12-17T18:10:37.872Z,1.73
2017-12-17T18:13:06.126Z,2.23
2017-12-17T18:15:34.430Z,2.30
2017-12-17T18:18:02.694Z,2.60
2017-12-17T18:20:31.085Z,3.10
2017-12-17T18:22:59.381Z,2.20
2017-12-17T18:25:27.648Z,1.73
2017-12-17T18:27:56.022Z,2.37
2017-12-17T18:30:24.387Z,3.17
2017-12-17T18:32:52.676Z,2.37
2017-12-17T18:35:20.932Z,3.10
2017-12-17T18:37:49.212Z,2.37
2017-12-17T18:40:17.471Z,2.70
2017-12-17T18:42:45.785Z,3.10
2017-12-17T18:45:14.048Z,2.57
2017-12-17T18:47:43.485Z,2.43
2017-12-17T18:50:11.788Z,2.47
2017-12-17T18:52:40.830Z,1.83
2017-12-17T18:55:09.108Z,2.63
2017-12-17T18:57:37.371Z,3.03
2017-12-17T19:00:05.675Z,2.50
2017-12-17T19:02:33.928Z,2.70
2017-12-17T19:05:02.198Z,2.43
2017-12-17T19:07:30.471Z,2.30
2017-12-17T19:09:58.728Z,2.63
2017-12-17T19:12:27.035Z,3.83
2017-12-17T19:14:55.278Z,3.00
2017-12-17T19:17:23.556Z,3.30
2017-12-17T19:19:51.835Z,3.57
2017-12-17T19:22:20.844Z,2.57
2017-12-17T19:24:49.133Z,3.43
2017-12-17T19:27:17.410Z,3.30
2017-12-17T19:29:45.689Z,3.37
2017-12-17T19:32:13.943Z,3.13
2017-12-17T19:34:42.262Z,3.33
2017-12-17T19:37:10.508Z,3.80
2017-12-17T19:39:38.819Z,3.40
2017-12-17T19:42:07.197Z,4.17
2017-12-17T19:44:35.496Z,4.03
2017-12-17T19:47:03.871Z,3.97
2017-12-17T19:49:32.231Z,3.30
2017-12-17T19:52:00.492Z,3.37
2017-12-17T19:54:28.744Z,2.90
2017-12-17T19:56:57.056Z,3.33
2017-12-17T19:59:25.333Z,2.27
2017-12-17T20:01:53.593Z,2.77
2017-12-17T20:04:21.867Z,2.83
2017-12-17T20:06:50.133Z,3.03
2017-12-17T20:09:18.387Z,2.50
2017-12-17T20:11:47.444Z,2.97
2017-12-17T20:14:15.713Z,3.00
2017-12-17T20:16:44.004Z,2.40
2017-12-17T20:19:12.260Z,3.70
2017-12-17T20:21:40.571Z,3.30
2017-12-17T20:24:08.836Z,2.87
2017-12-17T20:26:37.129Z,2.43
2017-12-17T20:29:05.435Z,2.00
2017-12-17T20:31:33.693Z,3.20
2017-12-17T20:34:02.724Z,2.77
2017-12-17T20:36:31.002Z,3.30
2017-12-17T20:38:59.257Z,2.97
2017-12-17T20:41:27.540Z,3.80
2017-12-17T20:43:55.803Z,4.33
2017-12-17T20:46:24.856Z,3.30
2017-12-17T20:48:53.454Z,2.80
2017-12-17T20:51:21.916Z,2.50
2017-12-17T20:53:50.183Z,2.83
2017-12-17T20:56:18.447Z,2.60
2017-12-17T20:58:46.695Z,2.10
2017-12-17T21:01:15.849Z,2.53
2017-12-17T21:03:44.118Z,1.87
2017-12-17T21:06:12.388Z,2.23
2017-12-17T21:08:40.684Z,0.97
2017-12-17T21:11:08.970Z,1.13
2017-12-17T21:13:37.225Z,1.13
2017-12-17T21:16:05.512Z,1.27
2017-12-17T21:18:33.896Z,1.33
2017-12-17T21:21:02.170Z,1.77
2017-12-17T21:23:30.594Z,1.70
2017-12-17T21:25:59.623Z,2.10
2017-12-17T21:28:27.897Z,1.50
2017-12-17T21:30:56.207Z,1.30
2017-12-17T21:33:24.567Z,1.57
2017-12-17T21:35:52.829Z,1.73
2017-12-17T21:38:21.234Z,1.83
2017-12-17T21:40:49.548Z,2.20
2017-12-17T21:43:17.759Z,2.50
2017-12-17T21:45:46.023Z,2.27
2017-12-17T21:48:14.343Z,1.73
2017-12-17T21:50:42.721Z,2.40
2017-12-17T21:53:10.957Z,2.70
2017-12-17T21:55:39.216Z,2.40
2017-12-17T21:58:07.495Z,2.10
2017-12-17T22:00:36.544Z,1.93
2017-12-17T22:03:04.875Z,1.40
2017-12-17T22:05:33.888Z,3.33
2017-12-17T22:08:02.301Z,8.57
2017-12-17T22:10:30.581Z,11.77
2017-12-17T22:12:58.864Z,2.40
2017-12-17T22:15:27.141Z,1.97
2017-12-17T22:17:56.915Z,2.17
2017-12-17T22:20:25.184Z,1.67
2017-12-17T22:22:53.505Z,3.00
2017-12-17T22:25:21.783Z,3.10
2017-12-17T22:27:50.146Z,3.63
2017-12-17T22:30:18.399Z,3.53
2017-12-17T22:32:46.676Z,2.87
2017-12-17T22:35:14.929Z,3.27
2017-12-17T22:37:43.205Z,3.80
2017-12-17T22:40:12.257Z,2.83
2017-12-17T22:42:40.640Z,6.87
2017-12-17T22:45:08.880Z,4.37
2017-12-17T22:47:37.222Z,3.40
2017-12-17T22:50:06.307Z,3.17
2017-12-17T22:52:34.652Z,3.30
2017-12-17T22:55:02.957Z,2.70
2017-12-17T22:57:31.314Z,3.40
2017-12-17T22:59:59.613Z,4.00
2017-12-17T23:02:27.872Z,3.40
2017-12-17T23:04:56.177Z,2.77
2017-12-17T23:07:24.570Z,3.00
2017-12-17T23:09:53.587Z,2.30
2017-12-17T23:12:21.856Z,1.60
2017-12-17T23:14:50.129Z,1.47
2017-12-17T23:17:18.404Z,2.50
2017-12-17T23:19:46.651Z,1.40
2017-12-17T23:22:15.013Z,1.27
2017-12-17T23:24:44.022Z,1.20
2017-12-17T23:27:13.044Z,1.50
2017-12-17T23:29:41.350Z,1.40
2017-12-17T23:32:09.599Z,2.37
2017-12-17T23:34:37.890Z,1.50
2017-12-17T23:37:06.128Z,2.30
2017-12-17T23:39:35.220Z,1.67
2017-12-17T23:42:04.233Z,1.87
2017-12-17T23:44:32.489Z,1.70
2017-12-17T23:47:01.546Z,1.40
2017-12-17T23:49:29.851Z,1.13
2017-12-17T23:51:58.111Z,1.33
2017-12-17T23:54:26.364Z,1.50
2017-12-17T23:56:54.647Z,1.50
2017-12-17T23:59:22.899Z,1.57
